sensor_id;sensor_type;location;lat;lon;timestamp;P1;durP1;ratioP1;P2;durP2;ratioP2
10910;SDS011;5508;49.150;11.030;2023-09-18T00:01:50;13.97;;;9.63;;
10910;SDS011;5508;49.150;11.030;2023-09-18T00:04:50;10.60;;;9.50;;
10910;SDS011;5508;49.150;11.030;2023-09-18T00:07:52;10.60;;;9.30;;
10910;SDS011;5508;49.150;11.030;2023-09-18T00:10:53;11.17;;;9.60;;
10910;SDS011;5508;49.150;11.030;2023-09-18T00:13:54;12.53;;;9.13;;
10910;SDS011;5508;49.150;11.030;2023-09-18T00:16:55;10.47;;;8.90;;
10910;SDS011;5508;49.150;11.030;2023-09-18T00:19:57;10.47;;;8.77;;
10910;SDS011;5508;49.150;11.030;2023-09-18T00:22:57;10.70;;;8.70;;
10910;SDS011;5508;49.150;11.030;2023-09-18T00:25:58;10.97;;;9.87;;
10910;SDS011;5508;49.150;11.030;2023-09-18T00:28:59;11.80;;;10.20;;
10910;SDS011;5508;49.150;11.030;2023-09-18T00:31:59;16.13;;;10.83;;
10910;SDS011;5508;49.150;11.030;2023-09-18T00:35:00;13.20;;;10.23;;
10910;SDS011;5508;49.150;11.030;2023-09-18T00:38:00;12.20;;;10.07;;
10910;SDS011;5508;49.150;11.030;2023-09-18T00:41:03;12.10;;;10.20;;
10910;SDS011;5508;49.150;11.030;2023-09-18T00:44:04;12.17;;;10.47;;
10910;SDS011;5508;49.150;11.030;2023-09-18T00:47:05;11.03;;;9.87;;
10910;SDS011;5508;49.150;11.030;2023-09-18T00:50:08;11.53;;;9.93;;
10910;SDS011;5508;49.150;11.030;2023-09-18T00:53:15;12.00;;;10.10;;
10910;SDS011;5508;49.150;11.030;2023-09-18T00:56:19;12.67;;;9.40;;
10910;SDS011;5508;49.150;11.030;2023-09-18T00:59:20;12.33;;;9.23;;
10910;SDS011;5508;49.150;11.030;2023-09-18T01:02:21;11.20;;;9.93;;
10910;SDS011;5508;49.150;11.030;2023-09-18T01:05:22;12.60;;;9.93;;
10910;SDS011;5508;49.150;11.030;2023-09-18T01:08:22;11.67;;;10.23;;
10910;SDS011;5508;49.150;11.030;2023-09-18T01:11:26;10.83;;;9.73;;
10910;SDS011;5508;49.150;11.030;2023-09-18T01:14:40;9.97;;;8.90;;
10910;SDS011;5508;49.150;11.030;2023-09-18T01:17:49;11.93;;;8.73;;
10910;SDS011;5508;49.150;11.030;2023-09-18T01:20:50;14.13;;;9.53;;
10910;SDS011;5508;49.150;11.030;2023-09-18T01:23:51;11.23;;;10.13;;
10910;SDS011;5508;49.150;11.030;2023-09-18T01:26:51;10.70;;;9.53;;
10910;SDS011;5508;49.150;11.030;2023-09-18T01:29:52;10.77;;;9.67;;
10910;SDS011;5508;49.150;11.030;2023-09-18T01:32:53;10.87;;;9.43;;
10910;SDS011;5508;49.150;11.030;2023-09-18T01:35:57;11.53;;;9.73;;
10910;SDS011;5508;49.150;11.030;2023-09-18T01:38:59;9.83;;;8.87;;
10910;SDS011;5508;49.150;11.030;2023-09-18T01:42:01;11.20;;;9.23;;
10910;SDS011;5508;49.150;11.030;2023-09-18T01:45:05;11.07;;;9.07;;
10910;SDS011;5508;49.150;11.030;2023-09-18T01:48:06;10.40;;;9.30;;
10910;SDS011;5508;49.150;11.030;2023-09-18T01:51:07;10.80;;;9.10;;
10910;SDS011;5508;49.150;11.030;2023-09-18T01:54:07;11.33;;;9.40;;
10910;SDS011;5508;49.150;11.030;2023-09-18T01:57:08;11.07;;;9.00;;
10910;SDS011;5508;49.150;11.030;2023-09-18T02:00:09;10.17;;;9.17;;
10910;SDS011;5508;49.150;11.030;2023-09-18T02:03:10;9.67;;;8.57;;
10910;SDS011;5508;49.150;11.030;2023-09-18T02:06:10;9.43;;;8.37;;
10910;SDS011;5508;49.150;11.030;2023-09-18T02:09:11;9.53;;;8.63;;
10910;SDS011;5508;49.150;11.030;2023-09-18T02:12:11;10.93;;;8.53;;
10910;SDS011;5508;49.150;11.030;2023-09-18T02:15:17;9.37;;;8.43;;
10910;SDS011;5508;49.150;11.030;2023-09-18T02:18:17;9.20;;;8.30;;
10910;SDS011;5508;49.150;11.030;2023-09-18T02:21:22;11.73;;;10.63;;
10910;SDS011;5508;49.150;11.030;2023-09-18T02:24:23;17.47;;;13.43;;
10910;SDS011;5508;49.150;11.030;2023-09-18T02:27:24;12.90;;;11.20;;
10910;SDS011;5508;49.150;11.030;2023-09-18T02:30:24;10.03;;;9.03;;
10910;SDS011;5508;49.150;11.030;2023-09-18T02:33:25;11.10;;;9.93;;
10910;SDS011;5508;49.150;11.030;2023-09-18T02:36:26;9.10;;;8.23;;
10910;SDS011;5508;49.150;11.030;2023-09-18T02:39:26;8.87;;;7.97;;
10910;SDS011;5508;49.150;11.030;2023-09-18T02:42:27;11.43;;;8.27;;
10910;SDS011;5508;49.150;11.030;2023-09-18T02:45:27;9.50;;;8.13;;
10910;SDS011;5508;49.150;11.030;2023-09-18T02:48:28;9.10;;;8.17;;
10910;SDS011;5508;49.150;11.030;2023-09-18T02:51:29;9.87;;;8.80;;
10910;SDS011;5508;49.150;11.030;2023-09-18T02:54:31;10.50;;;8.37;;
10910;SDS011;5508;49.150;11.030;2023-09-18T02:57:32;11.07;;;9.37;;
10910;SDS011;5508;49.150;11.030;2023-09-18T03:00:32;9.97;;;8.60;;
10910;SDS011;5508;49.150;11.030;2023-09-18T03:03:33;10.63;;;8.03;;
10910;SDS011;5508;49.150;11.030;2023-09-18T03:06:34;13.33;;;8.40;;
10910;SDS011;5508;49.150;11.030;2023-09-18T03:09:37;12.03;;;8.73;;
10910;SDS011;5508;49.150;11.030;2023-09-18T03:12:38;14.97;;;9.90;;
10910;SDS011;5508;49.150;11.030;2023-09-18T03:15:39;17.13;;;10.33;;
10910;SDS011;5508;49.150;11.030;2023-09-18T03:18:40;14.43;;;9.53;;
10910;SDS011;5508;49.150;11.030;2023-09-18T03:21:40;11.97;;;9.10;;
10910;SDS011;5508;49.150;11.030;2023-09-18T03:24:41;11.10;;;9.07;;
10910;SDS011;5508;49.150;11.030;2023-09-18T03:27:42;12.37;;;9.50;;
10910;SDS011;5508;49.150;11.030;2023-09-18T03:30:42;15.90;;;9.97;;
10910;SDS011;5508;49.150;11.030;2023-09-18T03:33:43;10.63;;;9.00;;
10910;SDS011;5508;49.150;11.030;2023-09-18T03:36:43;12.00;;;8.83;;
10910;SDS011;5508;49.150;11.030;2023-09-18T03:39:44;13.90;;;9.87;;
10910;SDS011;5508;49.150;11.030;2023-09-18T03:42:45;10.97;;;8.37;;
10910;SDS011;5508;49.150;11.030;2023-09-18T03:45:46;14.57;;;10.97;;
10910;SDS011;5508;49.150;11.030;2023-09-18T03:48:46;14.90;;;10.87;;
10910;SDS011;5508;49.150;11.030;2023-09-18T03:51:47;10.90;;;8.80;;
10910;SDS011;5508;49.150;11.030;2023-09-18T03:54:47;9.80;;;8.40;;
10910;SDS011;5508;49.150;11.030;2023-09-18T03:57:48;10.23;;;8.73;;
10910;SDS011;5508;49.150;11.030;2023-09-18T04:00:48;11.63;;;9.27;;
10910;SDS011;5508;49.150;11.030;2023-09-18T04:03:49;9.80;;;8.53;;
10910;SDS011;5508;49.150;11.030;2023-09-18T04:06:50;10.77;;;8.60;;
10910;SDS011;5508;49.150;11.030;2023-09-18T04:09:50;11.80;;;8.83;;
10910;SDS011;5508;49.150;11.030;2023-09-18T04:12:51;9.37;;;8.37;;
10910;SDS011;5508;49.150;11.030;2023-09-18T04:15:52;11.40;;;9.60;;
10910;SDS011;5508;49.150;11.030;2023-09-18T04:18:56;11.37;;;8.70;;
10910;SDS011;5508;49.150;11.030;2023-09-18T04:21:57;10.50;;;9.10;;
10910;SDS011;5508;49.150;11.030;2023-09-18T04:24:58;8.97;;;8.07;;
10910;SDS011;5508;49.150;11.030;2023-09-18T04:27:58;9.70;;;8.80;;
10910;SDS011;5508;49.150;11.030;2023-09-18T04:30:59;9.23;;;8.17;;
10910;SDS011;5508;49.150;11.030;2023-09-18T04:33:59;9.80;;;8.00;;
10910;SDS011;5508;49.150;11.030;2023-09-18T04:37:00;8.73;;;7.83;;
10910;SDS011;5508;49.150;11.030;2023-09-18T04:40:01;9.40;;;7.50;;
10910;SDS011;5508;49.150;11.030;2023-09-18T04:43:02;9.20;;;8.30;;
10910;SDS011;5508;49.150;11.030;2023-09-18T04:46:06;8.90;;;7.93;;
10910;SDS011;5508;49.150;11.030;2023-09-18T04:49:06;10.37;;;8.07;;
10910;SDS011;5508;49.150;11.030;2023-09-18T04:52:07;12.47;;;8.17;;
10910;SDS011;5508;49.150;11.030;2023-09-18T04:55:08;9.73;;;8.60;;
10910;SDS011;5508;49.150;11.030;2023-09-18T04:58:08;10.00;;;8.57;;
10910;SDS011;5508;49.150;11.030;2023-09-18T05:01:09;10.20;;;9.07;;
10910;SDS011;5508;49.150;11.030;2023-09-18T05:04:11;11.83;;;9.20;;
10910;SDS011;5508;49.150;11.030;2023-09-18T05:07:11;11.03;;;9.23;;
10910;SDS011;5508;49.150;11.030;2023-09-18T05:10:12;11.73;;;10.53;;
10910;SDS011;5508;49.150;11.030;2023-09-18T05:13:12;14.20;;;10.93;;
10910;SDS011;5508;49.150;11.030;2023-09-18T05:16:13;20.07;;;11.37;;
10910;SDS011;5508;49.150;11.030;2023-09-18T05:19:13;13.13;;;11.37;;
10910;SDS011;5508;49.150;11.030;2023-09-18T05:22:14;12.60;;;10.97;;
10910;SDS011;5508;49.150;11.030;2023-09-18T05:25:15;9.93;;;8.43;;
10910;SDS011;5508;49.150;11.030;2023-09-18T05:28:15;11.70;;;9.13;;
10910;SDS011;5508;49.150;11.030;2023-09-18T05:31:16;8.67;;;7.87;;
10910;SDS011;5508;49.150;11.030;2023-09-18T05:34:17;7.83;;;7.03;;
10910;SDS011;5508;49.150;11.030;2023-09-18T05:37:17;8.57;;;7.30;;
10910;SDS011;5508;49.150;11.030;2023-09-18T05:40:18;9.50;;;7.70;;
10910;SDS011;5508;49.150;11.030;2023-09-18T05:43:19;10.90;;;7.80;;
10910;SDS011;5508;49.150;11.030;2023-09-18T05:46:19;7.80;;;7.10;;
10910;SDS011;5508;49.150;11.030;2023-09-18T05:49:20;8.67;;;7.73;;
10910;SDS011;5508;49.150;11.030;2023-09-18T05:52:21;8.70;;;7.73;;
10910;SDS011;5508;49.150;11.030;2023-09-18T05:55:23;10.77;;;8.17;;
10910;SDS011;5508;49.150;11.030;2023-09-18T05:58:24;8.33;;;7.50;;
10910;SDS011;5508;49.150;11.030;2023-09-18T06:01:26;9.17;;;8.27;;
10910;SDS011;5508;49.150;11.030;2023-09-18T06:04:27;10.03;;;8.47;;
10910;SDS011;5508;49.150;11.030;2023-09-18T06:07:29;9.33;;;8.43;;
10910;SDS011;5508;49.150;11.030;2023-09-18T06:10:30;11.90;;;8.03;;
10910;SDS011;5508;49.150;11.030;2023-09-18T06:13:30;8.90;;;7.50;;
10910;SDS011;5508;49.150;11.030;2023-09-18T06:16:31;8.80;;;7.90;;
10910;SDS011;5508;49.150;11.030;2023-09-18T06:19:31;9.03;;;7.67;;
10910;SDS011;5508;49.150;11.030;2023-09-18T06:22:33;8.37;;;7.53;;
10910;SDS011;5508;49.150;11.030;2023-09-18T06:25:33;13.77;;;7.87;;
10910;SDS011;5508;49.150;11.030;2023-09-18T06:28:34;8.10;;;7.30;;
10910;SDS011;5508;49.150;11.030;2023-09-18T06:31:35;8.83;;;6.97;;
10910;SDS011;5508;49.150;11.030;2023-09-18T06:34:35;8.20;;;6.87;;
10910;SDS011;5508;49.150;11.030;2023-09-18T06:37:36;8.23;;;7.17;;
10910;SDS011;5508;49.150;11.030;2023-09-18T06:40:37;6.93;;;6.23;;
10910;SDS011;5508;49.150;11.030;2023-09-18T06:43:37;7.67;;;6.87;;
10910;SDS011;5508;49.150;11.030;2023-09-18T06:46:38;7.93;;;7.20;;
10910;SDS011;5508;49.150;11.030;2023-09-18T06:49:39;10.83;;;7.50;;
10910;SDS011;5508;49.150;11.030;2023-09-18T06:52:41;9.20;;;6.37;;
10910;SDS011;5508;49.150;11.030;2023-09-18T06:55:42;6.30;;;5.70;;
10910;SDS011;5508;49.150;11.030;2023-09-18T06:58:44;7.63;;;6.07;;
10910;SDS011;5508;49.150;11.030;2023-09-18T07:01:44;8.60;;;5.60;;
10910;SDS011;5508;49.150;11.030;2023-09-18T07:04:45;10.03;;;6.50;;
10910;SDS011;5508;49.150;11.030;2023-09-18T07:07:46;10.87;;;6.37;;
10910;SDS011;5508;49.150;11.030;2023-09-18T07:10:46;7.37;;;6.67;;
10910;SDS011;5508;49.150;11.030;2023-09-18T07:13:49;7.65;;;6.85;;
10910;SDS011;5508;49.150;11.030;2023-09-18T07:16:50;6.72;;;5.88;;
10910;SDS011;5508;49.150;11.030;2023-09-18T07:19:51;14.15;;;6.00;;
10910;SDS011;5508;49.150;11.030;2023-09-18T07:22:51;6.60;;;5.88;;
10910;SDS011;5508;49.150;11.030;2023-09-18T07:25:52;7.32;;;5.28;;
10910;SDS011;5508;49.150;11.030;2023-09-18T07:28:52;10.20;;;5.50;;
10910;SDS011;5508;49.150;11.030;2023-09-18T07:31:53;6.22;;;5.00;;
10910;SDS011;5508;49.150;11.030;2023-09-18T07:34:53;5.18;;;4.70;;
10910;SDS011;5508;49.150;11.030;2023-09-18T07:37:54;8.18;;;5.55;;
10910;SDS011;5508;49.150;11.030;2023-09-18T07:40:55;10.65;;;4.97;;
10910;SDS011;5508;49.150;11.030;2023-09-18T07:43:56;7.55;;;4.60;;
10910;SDS011;5508;49.150;11.030;2023-09-18T07:46:58;7.13;;;5.03;;
10910;SDS011;5508;49.150;11.030;2023-09-18T07:50:01;5.47;;;4.25;;
10910;SDS011;5508;49.150;11.030;2023-09-18T07:53:01;5.97;;;4.75;;
10910;SDS011;5508;49.150;11.030;2023-09-18T07:56:02;7.53;;;4.07;;
10910;SDS011;5508;49.150;11.030;2023-09-18T07:59:04;4.38;;;3.60;;
10910;SDS011;5508;49.150;11.030;2023-09-18T08:02:05;8.85;;;4.07;;
10910;SDS011;5508;49.150;11.030;2023-09-18T08:05:06;9.10;;;4.20;;
10910;SDS011;5508;49.150;11.030;2023-09-18T08:08:08;6.07;;;4.13;;
10910;SDS011;5508;49.150;11.030;2023-09-18T08:11:09;7.70;;;3.63;;
10910;SDS011;5508;49.150;11.030;2023-09-18T08:14:09;10.25;;;3.50;;
10910;SDS011;5508;49.150;11.030;2023-09-18T08:17:10;5.55;;;3.50;;
10910;SDS011;5508;49.150;11.030;2023-09-18T08:20:11;9.90;;;4.20;;
10910;SDS011;5508;49.150;11.030;2023-09-18T08:23:14;6.10;;;3.78;;
10910;SDS011;5508;49.150;11.030;2023-09-18T08:26:14;6.57;;;3.20;;
10910;SDS011;5508;49.150;11.030;2023-09-18T08:29:16;10.48;;;3.97;;
10910;SDS011;5508;49.150;11.030;2023-09-18T08:32:17;4.88;;;3.42;;
10910;SDS011;5508;49.150;11.030;2023-09-18T08:35:17;8.43;;;3.42;;
10910;SDS011;5508;49.150;11.030;2023-09-18T08:38:18;8.18;;;3.47;;
10910;SDS011;5508;49.150;11.030;2023-09-18T08:41:19;4.25;;;3.30;;
10910;SDS011;5508;49.150;11.030;2023-09-18T08:44:20;8.25;;;4.18;;
10910;SDS011;5508;49.150;11.030;2023-09-18T08:47:25;7.82;;;3.40;;
10910;SDS011;5508;49.150;11.030;2023-09-18T08:50:27;7.47;;;3.83;;
10910;SDS011;5508;49.150;11.030;2023-09-18T08:53:30;9.85;;;3.60;;
10910;SDS011;5508;49.150;11.030;2023-09-18T08:56:32;5.07;;;3.50;;
10910;SDS011;5508;49.150;11.030;2023-09-18T08:59:35;6.82;;;3.40;;
10910;SDS011;5508;49.150;11.030;2023-09-18T09:02:38;5.80;;;3.00;;
10910;SDS011;5508;49.150;11.030;2023-09-18T09:05:39;7.22;;;3.13;;
10910;SDS011;5508;49.150;11.030;2023-09-18T09:08:40;5.95;;;3.30;;
10910;SDS011;5508;49.150;11.030;2023-09-18T09:11:47;8.15;;;3.25;;
10910;SDS011;5508;49.150;11.030;2023-09-18T09:15:02;6.72;;;3.15;;
10910;SDS011;5508;49.150;11.030;2023-09-18T09:18:04;8.10;;;2.70;;
10910;SDS011;5508;49.150;11.030;2023-09-18T09:21:08;9.25;;;3.17;;
10910;SDS011;5508;49.150;11.030;2023-09-18T09:24:08;5.22;;;2.63;;
10910;SDS011;5508;49.150;11.030;2023-09-18T09:27:13;4.88;;;2.55;;
10910;SDS011;5508;49.150;11.030;2023-09-18T09:30:19;5.15;;;2.53;;
10910;SDS011;5508;49.150;11.030;2023-09-18T09:33:21;4.88;;;2.80;;
10910;SDS011;5508;49.150;11.030;2023-09-18T09:36:24;4.57;;;2.28;;
10910;SDS011;5508;49.150;11.030;2023-09-18T09:39:24;9.60;;;2.28;;
10910;SDS011;5508;49.150;11.030;2023-09-18T09:42:26;11.60;;;2.90;;
10910;SDS011;5508;49.150;11.030;2023-09-18T09:45:29;7.30;;;2.28;;
10910;SDS011;5508;49.150;11.030;2023-09-18T09:48:30;7.68;;;2.67;;
10910;SDS011;5508;49.150;11.030;2023-09-18T09:51:31;6.13;;;2.53;;
10910;SDS011;5508;49.150;11.030;2023-09-18T09:54:34;5.25;;;2.75;;
10910;SDS011;5508;49.150;11.030;2023-09-18T09:57:46;4.13;;;2.60;;
10910;SDS011;5508;49.150;11.030;2023-09-18T10:00:49;8.52;;;2.72;;
10910;SDS011;5508;49.150;11.030;2023-09-18T10:03:53;4.60;;;2.33;;
10910;SDS011;5508;49.150;11.030;2023-09-18T10:07:00;6.03;;;3.05;;
10910;SDS011;5508;49.150;11.030;2023-09-18T10:10:07;7.55;;;2.72;;
10910;SDS011;5508;49.150;11.030;2023-09-18T10:16:26;4.57;;;2.67;;
10910;SDS011;5508;49.150;11.030;2023-09-18T10:19:42;6.90;;;2.20;;
10910;SDS011;5508;49.150;11.030;2023-09-18T10:22:45;5.07;;;2.47;;
10910;SDS011;5508;49.150;11.030;2023-09-18T10:25:50;3.92;;;1.70;;
10910;SDS011;5508;49.150;11.030;2023-09-18T10:28:55;5.60;;;1.88;;
10910;SDS011;5508;49.150;11.030;2023-09-18T10:32:03;5.25;;;1.60;;
10910;SDS011;5508;49.150;11.030;2023-09-18T10:35:13;5.43;;;1.70;;
10910;SDS011;5508;49.150;11.030;2023-09-18T10:38:15;6.72;;;2.05;;
10910;SDS011;5508;49.150;11.030;2023-09-18T10:41:17;4.25;;;1.60;;
10910;SDS011;5508;49.150;11.030;2023-09-18T10:44:20;4.32;;;1.98;;
10910;SDS011;5508;49.150;11.030;2023-09-18T10:47:21;4.35;;;1.73;;
10910;SDS011;5508;49.150;11.030;2023-09-18T10:50:23;3.88;;;1.30;;
10910;SDS011;5508;49.150;11.030;2023-09-18T10:53:27;4.50;;;1.67;;
10910;SDS011;5508;49.150;11.030;2023-09-18T10:56:28;4.47;;;1.42;;
10910;SDS011;5508;49.150;11.030;2023-09-18T10:59:28;3.22;;;1.60;;
10910;SDS011;5508;49.150;11.030;2023-09-18T11:02:30;4.25;;;1.77;;
10910;SDS011;5508;49.150;11.030;2023-09-18T11:05:34;8.18;;;1.40;;
10910;SDS011;5508;49.150;11.030;2023-09-18T11:08:36;4.60;;;1.55;;
10910;SDS011;5508;49.150;11.030;2023-09-18T11:11:52;7.15;;;1.63;;
10910;SDS011;5508;49.150;11.030;2023-09-18T11:14:58;6.28;;;1.48;;
10910;SDS011;5508;49.150;11.030;2023-09-18T11:18:01;2.55;;;1.33;;
10910;SDS011;5508;49.150;11.030;2023-09-18T11:21:09;3.33;;;1.23;;
10910;SDS011;5508;49.150;11.030;2023-09-18T11:27:23;7.93;;;1.92;;
10910;SDS011;5508;49.150;11.030;2023-09-18T11:30:24;2.67;;;1.33;;
10910;SDS011;5508;49.150;11.030;2023-09-18T11:33:35;4.13;;;1.20;;
10910;SDS011;5508;49.150;11.030;2023-09-18T11:36:37;5.43;;;1.90;;
10910;SDS011;5508;49.150;11.030;2023-09-18T11:39:39;3.42;;;1.30;;
10910;SDS011;5508;49.150;11.030;2023-09-18T11:42:46;5.03;;;1.85;;
10910;SDS011;5508;49.150;11.030;2023-09-18T11:46:23;5.70;;;1.55;;
10910;SDS011;5508;49.150;11.030;2023-09-18T11:49:25;2.42;;;1.35;;
10910;SDS011;5508;49.150;11.030;2023-09-18T11:52:28;7.22;;;1.27;;
10910;SDS011;5508;49.150;11.030;2023-09-18T11:55:29;2.10;;;1.27;;
10910;SDS011;5508;49.150;11.030;2023-09-18T11:58:30;2.15;;;1.05;;
10910;SDS011;5508;49.150;11.030;2023-09-18T12:01:44;5.63;;;1.65;;
10910;SDS011;5508;49.150;11.030;2023-09-18T12:05:11;3.25;;;1.38;;
10910;SDS011;5508;49.150;11.030;2023-09-18T12:08:15;2.35;;;0.90;;
10910;SDS011;5508;49.150;11.030;2023-09-18T12:11:16;2.00;;;1.20;;
10910;SDS011;5508;49.150;11.030;2023-09-18T12:14:19;3.80;;;1.10;;
10910;SDS011;5508;49.150;11.030;2023-09-18T12:17:20;3.75;;;1.40;;
10910;SDS011;5508;49.150;11.030;2023-09-18T12:20:21;2.30;;;1.10;;
10910;SDS011;5508;49.150;11.030;2023-09-18T12:23:21;4.32;;;1.55;;
10910;SDS011;5508;49.150;11.030;2023-09-18T12:26:24;2.80;;;1.45;;
10910;SDS011;5508;49.150;11.030;2023-09-18T12:29:26;5.75;;;1.67;;
10910;SDS011;5508;49.150;11.030;2023-09-18T12:32:26;2.03;;;1.38;;
10910;SDS011;5508;49.150;11.030;2023-09-18T12:35:27;2.50;;;1.10;;
10910;SDS011;5508;49.150;11.030;2023-09-18T12:38:30;2.90;;;1.10;;
10910;SDS011;5508;49.150;11.030;2023-09-18T12:41:31;3.97;;;1.53;;
10910;SDS011;5508;49.150;11.030;2023-09-18T12:44:32;3.93;;;1.20;;
10910;SDS011;5508;49.150;11.030;2023-09-18T12:47:33;3.20;;;1.20;;
10910;SDS011;5508;49.150;11.030;2023-09-18T12:50:34;2.17;;;1.20;;
10910;SDS011;5508;49.150;11.030;2023-09-18T12:53:35;3.70;;;1.40;;
10910;SDS011;5508;49.150;11.030;2023-09-18T12:56:40;2.93;;;1.37;;
10910;SDS011;5508;49.150;11.030;2023-09-18T12:59:41;3.77;;;1.23;;
10910;SDS011;5508;49.150;11.030;2023-09-18T13:02:44;4.13;;;1.40;;
10910;SDS011;5508;49.150;11.030;2023-09-18T13:05:45;2.90;;;2.50;;
10910;SDS011;5508;49.150;11.030;2023-09-18T13:08:47;2.00;;;1.30;;
10910;SDS011;5508;49.150;11.030;2023-09-18T13:11:52;3.87;;;2.30;;
10910;SDS011;5508;49.150;11.030;2023-09-18T13:15:00;9.13;;;6.10;;
10910;SDS011;5508;49.150;11.030;2023-09-18T13:18:10;4.87;;;3.33;;
10910;SDS011;5508;49.150;11.030;2023-09-18T13:21:12;4.70;;;2.30;;
10910;SDS011;5508;49.150;11.030;2023-09-18T13:24:26;2.50;;;0.97;;
10910;SDS011;5508;49.150;11.030;2023-09-18T13:27:31;1.53;;;0.83;;
10910;SDS011;5508;49.150;11.030;2023-09-18T13:30:32;1.10;;;1.00;;
10910;SDS011;5508;49.150;11.030;2023-09-18T13:33:39;3.27;;;1.20;;
10910;SDS011;5508;49.150;11.030;2023-09-18T13:36:40;2.30;;;1.80;;
10910;SDS011;5508;49.150;11.030;2023-09-18T13:39:41;4.60;;;2.47;;
10910;SDS011;5508;49.150;11.030;2023-09-18T13:42:42;2.87;;;1.73;;
10910;SDS011;5508;49.150;11.030;2023-09-18T13:45:42;3.40;;;2.90;;
10910;SDS011;5508;49.150;11.030;2023-09-18T13:48:43;2.73;;;1.30;;
10910;SDS011;5508;49.150;11.030;2023-09-18T13:51:44;5.73;;;3.70;;
10910;SDS011;5508;49.150;11.030;2023-09-18T13:54:45;5.30;;;3.50;;
10910;SDS011;5508;49.150;11.030;2023-09-18T13:57:51;8.60;;;6.53;;
10910;SDS011;5508;49.150;11.030;2023-09-18T14:00:51;5.57;;;4.10;;
10910;SDS011;5508;49.150;11.030;2023-09-18T14:03:53;1.97;;;1.50;;
10910;SDS011;5508;49.150;11.030;2023-09-18T14:06:54;5.13;;;3.37;;
10910;SDS011;5508;49.150;11.030;2023-09-18T14:09:54;3.00;;;1.67;;
10910;SDS011;5508;49.150;11.030;2023-09-18T14:12:55;7.07;;;3.13;;
10910;SDS011;5508;49.150;11.030;2023-09-18T14:15:57;5.67;;;3.87;;
10910;SDS011;5508;49.150;11.030;2023-09-18T14:18:58;1.93;;;1.03;;
10910;SDS011;5508;49.150;11.030;2023-09-18T14:21:59;1.90;;;1.30;;
10910;SDS011;5508;49.150;11.030;2023-09-18T14:25:03;5.77;;;1.03;;
10910;SDS011;5508;49.150;11.030;2023-09-18T14:28:05;2.27;;;1.20;;
10910;SDS011;5508;49.150;11.030;2023-09-18T14:31:06;3.07;;;1.67;;
10910;SDS011;5508;49.150;11.030;2023-09-18T14:34:06;3.23;;;1.27;;
10910;SDS011;5508;49.150;11.030;2023-09-18T14:37:08;4.20;;;1.40;;
10910;SDS011;5508;49.150;11.030;2023-09-18T14:40:09;3.33;;;1.20;;
10910;SDS011;5508;49.150;11.030;2023-09-18T14:43:11;3.67;;;1.87;;
10910;SDS011;5508;49.150;11.030;2023-09-18T14:46:12;2.60;;;1.60;;
10910;SDS011;5508;49.150;11.030;2023-09-18T14:49:13;3.07;;;1.70;;
10910;SDS011;5508;49.150;11.030;2023-09-18T14:52:14;3.17;;;1.40;;
10910;SDS011;5508;49.150;11.030;2023-09-18T14:55:16;2.63;;;1.40;;
10910;SDS011;5508;49.150;11.030;2023-09-18T14:58:16;2.17;;;1.47;;
10910;SDS011;5508;49.150;11.030;2023-09-18T15:01:18;3.27;;;1.47;;
10910;SDS011;5508;49.150;11.030;2023-09-18T15:04:20;3.83;;;2.47;;
10910;SDS011;5508;49.150;11.030;2023-09-18T15:07:22;2.33;;;1.20;;
10910;SDS011;5508;49.150;11.030;2023-09-18T15:10:22;3.33;;;1.40;;
10910;SDS011;5508;49.150;11.030;2023-09-18T15:13:23;4.50;;;2.70;;
10910;SDS011;5508;49.150;11.030;2023-09-18T15:16:23;4.33;;;1.67;;
10910;SDS011;5508;49.150;11.030;2023-09-18T15:19:24;3.70;;;1.50;;
10910;SDS011;5508;49.150;11.030;2023-09-18T15:22:25;3.60;;;1.70;;
10910;SDS011;5508;49.150;11.030;2023-09-18T15:25:26;3.77;;;1.37;;
10910;SDS011;5508;49.150;11.030;2023-09-18T15:28:28;10.30;;;3.10;;
10910;SDS011;5508;49.150;11.030;2023-09-18T15:31:29;3.90;;;1.80;;
10910;SDS011;5508;49.150;11.030;2023-09-18T15:34:30;5.23;;;4.67;;
10910;SDS011;5508;49.150;11.030;2023-09-18T15:37:31;3.13;;;1.90;;
10910;SDS011;5508;49.150;11.030;2023-09-18T15:40:31;4.90;;;1.50;;
10910;SDS011;5508;49.150;11.030;2023-09-18T15:43:33;3.93;;;1.23;;
10910;SDS011;5508;49.150;11.030;2023-09-18T15:46:33;4.43;;;1.50;;
10910;SDS011;5508;49.150;11.030;2023-09-18T15:49:34;2.60;;;1.40;;
10910;SDS011;5508;49.150;11.030;2023-09-18T15:52:35;2.97;;;1.10;;
10910;SDS011;5508;49.150;11.030;2023-09-18T15:55:36;5.20;;;1.50;;
10910;SDS011;5508;49.150;11.030;2023-09-18T15:58:37;2.20;;;1.37;;
10910;SDS011;5508;49.150;11.030;2023-09-18T16:01:38;3.07;;;1.20;;
10910;SDS011;5508;49.150;11.030;2023-09-18T16:04:40;4.87;;;1.33;;
10910;SDS011;5508;49.150;11.030;2023-09-18T16:07:40;3.80;;;1.20;;
10910;SDS011;5508;49.150;11.030;2023-09-18T16:10:41;4.00;;;1.43;;
10910;SDS011;5508;49.150;11.030;2023-09-18T16:13:43;2.77;;;1.47;;
10910;SDS011;5508;49.150;11.030;2023-09-18T16:16:43;2.13;;;1.40;;
10910;SDS011;5508;49.150;11.030;2023-09-18T16:19:44;3.53;;;1.20;;
10910;SDS011;5508;49.150;11.030;2023-09-18T16:22:44;5.77;;;2.47;;
10910;SDS011;5508;49.150;11.030;2023-09-18T16:25:46;5.33;;;1.47;;
10910;SDS011;5508;49.150;11.030;2023-09-18T16:28:47;5.83;;;2.23;;
10910;SDS011;5508;49.150;11.030;2023-09-18T16:31:48;2.47;;;1.57;;
10910;SDS011;5508;49.150;11.030;2023-09-18T16:34:48;2.23;;;1.17;;
10910;SDS011;5508;49.150;11.030;2023-09-18T16:37:49;3.47;;;1.87;;
10910;SDS011;5508;49.150;11.030;2023-09-18T16:40:50;4.10;;;3.43;;
10910;SDS011;5508;49.150;11.030;2023-09-18T16:43:50;3.03;;;1.67;;
10910;SDS011;5508;49.150;11.030;2023-09-18T16:46:51;2.63;;;1.73;;
10910;SDS011;5508;49.150;11.030;2023-09-18T16:49:52;5.47;;;1.60;;
10910;SDS011;5508;49.150;11.030;2023-09-18T16:52:52;3.27;;;1.60;;
10910;SDS011;5508;49.150;11.030;2023-09-18T16:55:53;5.83;;;5.10;;
10910;SDS011;5508;49.150;11.030;2023-09-18T16:58:54;17.20;;;12.60;;
10910;SDS011;5508;49.150;11.030;2023-09-18T17:01:54;7.53;;;5.27;;
10910;SDS011;5508;49.150;11.030;2023-09-18T17:04:55;5.17;;;2.10;;
10910;SDS011;5508;49.150;11.030;2023-09-18T17:07:56;5.07;;;2.73;;
10910;SDS011;5508;49.150;11.030;2023-09-18T17:10:56;11.23;;;5.17;;
10910;SDS011;5508;49.150;11.030;2023-09-18T17:13:57;3.80;;;3.10;;
10910;SDS011;5508;49.150;11.030;2023-09-18T17:16:58;13.33;;;11.77;;
10910;SDS011;5508;49.150;11.030;2023-09-18T17:19:59;2.70;;;1.70;;
10910;SDS011;5508;49.150;11.030;2023-09-18T17:23:00;7.80;;;5.27;;
10910;SDS011;5508;49.150;11.030;2023-09-18T17:26:00;2.53;;;2.23;;
10910;SDS011;5508;49.150;11.030;2023-09-18T17:29:01;4.70;;;3.57;;
10910;SDS011;5508;49.150;11.030;2023-09-18T17:32:03;3.43;;;1.73;;
10910;SDS011;5508;49.150;11.030;2023-09-18T17:35:03;5.13;;;1.70;;
10910;SDS011;5508;49.150;11.030;2023-09-18T17:38:04;2.93;;;1.53;;
10910;SDS011;5508;49.150;11.030;2023-09-18T17:41:05;6.63;;;1.87;;
10910;SDS011;5508;49.150;11.030;2023-09-18T17:44:06;2.70;;;1.63;;
10910;SDS011;5508;49.150;11.030;2023-09-18T17:47:07;2.30;;;1.67;;
10910;SDS011;5508;49.150;11.030;2023-09-18T17:50:08;1.73;;;1.40;;
10910;SDS011;5508;49.150;11.030;2023-09-18T17:53:09;4.70;;;1.83;;
10910;SDS011;5508;49.150;11.030;2023-09-18T17:56:09;2.43;;;1.50;;
10910;SDS011;5508;49.150;11.030;2023-09-18T17:59:11;3.40;;;1.63;;
10910;SDS011;5508;49.150;11.030;2023-09-18T18:02:12;2.50;;;1.57;;
10910;SDS011;5508;49.150;11.030;2023-09-18T18:05:13;2.60;;;1.80;;
10910;SDS011;5508;49.150;11.030;2023-09-18T18:08:13;3.40;;;2.93;;
10910;SDS011;5508;49.150;11.030;2023-09-18T18:11:14;4.90;;;2.40;;
10910;SDS011;5508;49.150;11.030;2023-09-18T18:14:14;6.10;;;2.13;;
10910;SDS011;5508;49.150;11.030;2023-09-18T18:17:15;2.77;;;1.90;;